createdAt,value
2023-02-01T00:01:10.590Z,88.52
2023-02-01T00:03:37.360Z,88.21
2023-02-01T00:06:04.400Z,88.72
2023-02-01T00:08:31.148Z,88.86
2023-02-01T00:11:09.531Z,90.39
2023-02-01T00:13:39.242Z,90.52
2023-02-01T00:16:20.343Z,90.21
2023-02-01T00:18:48.028Z,90.03
2023-02-01T00:21:16.256Z,89.73
2023-02-01T00:23:43.151Z,89.69
2023-02-01T00:26:16.156Z,90.51
2023-02-01T00:28:43.128Z,89.91
2023-02-01T00:31:09.828Z,90.37
2023-02-01T00:33:36.614Z,90.50
2023-02-01T00:36:06.278Z,89.79
2023-02-01T00:38:34.877Z,89.89
2023-02-01T00:41:06.393Z,90.80
2023-02-01T00:43:33.578Z,91.02
2023-02-01T00:46:00.314Z,91.06
2023-02-01T00:48:27.769Z,91.94
2023-02-01T00:50:54.488Z,92.54
2023-02-01T00:53:21.102Z,92.64
2023-02-01T00:55:49.056Z,93.23
2023-02-01T00:58:15.812Z,93.92
2023-02-01T01:00:42.480Z,94.30
2023-02-01T01:03:18.689Z,93.45
2023-02-01T01:05:49.381Z,94.27
2023-02-01T01:08:17.050Z,95.60
2023-02-01T01:10:44.111Z,95.30
2023-02-01T01:13:12.030Z,95.56
2023-02-01T01:15:40.375Z,94.16
2023-02-01T01:18:07.273Z,94.56
2023-02-01T01:20:39.554Z,94.49
2023-02-01T01:23:07.805Z,94.19
2023-02-01T01:25:40.988Z,94.59
2023-02-01T01:28:08.013Z,94.06
2023-02-01T01:30:35.999Z,94.76
2023-02-01T01:33:02.778Z,94.69
2023-02-01T01:35:33.911Z,94.20
2023-02-01T01:38:01.125Z,94.24
2023-02-01T01:40:28.966Z,93.70
2023-02-01T01:42:56.459Z,93.83
2023-02-01T01:45:35.326Z,93.34
2023-02-01T01:48:17.077Z,94.12
2023-02-01T01:50:50.168Z,93.22
2023-02-01T01:53:21.357Z,94.12
2023-02-01T01:55:49.693Z,93.45
2023-02-01T01:58:19.946Z,93.88
2023-02-01T02:00:48.320Z,94.42
2023-02-01T02:03:43.380Z,93.92
2023-02-01T02:07:00.499Z,93.74
2023-02-01T02:09:27.270Z,93.67
2023-02-01T02:11:54.179Z,93.48
2023-02-01T02:14:23.743Z,93.39
2023-02-01T02:17:26.572Z,92.99
2023-02-01T02:20:29.001Z,93.42
2023-02-01T02:23:43.894Z,92.96
2023-02-01T02:26:35.598Z,93.20
2023-02-01T02:29:42.485Z,92.72
2023-02-01T02:32:49.727Z,92.70
2023-02-01T02:35:39.291Z,94.22
2023-02-01T02:38:24.349Z,93.49
2023-02-01T02:42:12.764Z,93.51
2023-02-01T02:45:26.560Z,93.61
2023-02-01T02:48:24.577Z,93.10
2023-02-01T02:51:32.188Z,93.47
2023-02-01T02:54:45.466Z,93.20
2023-02-01T02:57:32.355Z,92.93
2023-02-01T03:00:19.818Z,92.73
2023-02-01T03:03:07.413Z,93.97
2023-02-01T03:05:40.756Z,92.86
2023-02-01T03:08:24.135Z,93.55
2023-02-01T03:11:07.628Z,93.01
2023-02-01T03:14:01.638Z,92.64
2023-02-01T03:16:40.175Z,92.81
2023-02-01T03:19:30.712Z,93.37
2023-02-01T03:22:02.847Z,93.05
2023-02-01T03:24:41.054Z,93.50
2023-02-01T03:27:35.162Z,93.07
2023-02-01T03:30:18.915Z,93.47
2023-02-01T03:33:02.011Z,92.53
2023-02-01T03:35:45.534Z,93.12
2023-02-01T03:38:24.190Z,92.68
2023-02-01T03:41:29.699Z,90.48
2023-02-01T03:44:14.822Z,91.02
2023-02-01T03:47:05.970Z,90.63
2023-02-01T03:49:38.952Z,90.68
2023-02-01T03:52:09.191Z,91.40
2023-02-01T03:54:37.621Z,89.46
2023-02-01T03:57:10.943Z,88.83
2023-02-01T03:59:42.141Z,88.95
2023-02-01T04:02:09.138Z,88.51
2023-02-01T04:04:36.120Z,87.54
2023-02-01T04:07:03.022Z,88.75
2023-02-01T04:09:29.835Z,87.66
2023-02-01T04:11:56.442Z,88.33
2023-02-01T04:14:23.044Z,88.16
2023-02-01T04:16:49.786Z,87.76
2023-02-01T04:19:16.385Z,88.26
2023-02-01T04:21:42.985Z,88.07
2023-02-01T04:24:09.785Z,88.72
2023-02-01T04:26:36.581Z,89.17
2023-02-01T04:29:03.271Z,88.48
2023-02-01T04:31:30.019Z,88.40
2023-02-01T04:33:58.528Z,88.23
2023-02-01T04:36:25.618Z,88.24
2023-02-01T04:38:53.158Z,87.83
2023-02-01T04:41:21.369Z,88.68
2023-02-01T04:43:48.631Z,88.38
2023-02-01T04:46:15.443Z,88.58
2023-02-01T04:48:42.375Z,88.27
2023-02-01T04:51:10.953Z,88.87
2023-02-01T04:53:37.745Z,88.01
2023-02-01T04:56:04.780Z,88.13
2023-02-01T04:58:31.453Z,87.51
2023-02-01T05:00:58.201Z,88.29
2023-02-01T05:03:24.954Z,88.65
2023-02-01T05:05:52.864Z,87.67
2023-02-01T05:08:19.478Z,88.37
2023-02-01T05:10:46.288Z,88.59
2023-02-01T05:13:31.216Z,88.46
2023-02-01T05:15:57.973Z,87.83
2023-02-01T05:18:24.720Z,88.45
2023-02-01T05:20:51.329Z,88.58
2023-02-01T05:23:17.930Z,88.40
2023-02-01T05:25:44.531Z,88.61
2023-02-01T05:28:11.190Z,88.56
2023-02-01T05:30:39.304Z,89.12
2023-02-01T05:33:07.037Z,88.15
2023-02-01T05:35:33.679Z,88.57
2023-02-01T05:38:00.294Z,88.16
2023-02-01T05:40:26.965Z,88.45
2023-02-01T05:42:53.579Z,88.71
2023-02-01T05:45:20.228Z,88.82
2023-02-01T05:47:46.802Z,87.98
2023-02-01T05:50:13.443Z,88.37
2023-02-01T05:52:40.023Z,88.02
2023-02-01T05:55:07.059Z,87.81
2023-02-01T05:57:33.724Z,87.43
2023-02-01T06:00:00.833Z,87.36
2023-02-01T06:02:27.737Z,87.31
2023-02-01T06:04:54.416Z,87.23
2023-02-01T06:07:21.122Z,87.33
2023-02-01T06:09:47.758Z,86.94
2023-02-01T06:12:14.830Z,87.32
2023-02-01T06:14:41.959Z,87.39
2023-02-01T06:17:09.361Z,87.31
2023-02-01T06:19:35.985Z,87.63
2023-02-01T06:22:02.639Z,86.96
2023-02-01T06:24:29.295Z,88.05
2023-02-01T06:26:55.995Z,86.88
2023-02-01T06:29:22.646Z,86.83
2023-02-01T06:31:49.382Z,86.87
2023-02-01T06:34:16.034Z,87.31
2023-02-01T06:36:42.674Z,86.82
2023-02-01T06:39:09.331Z,86.40
2023-02-01T06:41:35.980Z,87.10
2023-02-01T06:44:02.704Z,85.84
2023-02-01T06:46:29.383Z,85.38
2023-02-01T06:48:56.627Z,85.97
2023-02-01T06:51:29.363Z,86.28
2023-02-01T06:53:56.526Z,85.68
2023-02-01T06:56:23.485Z,85.27
2023-02-01T06:58:50.306Z,85.76
2023-02-01T07:01:17.383Z,85.87
2023-02-01T07:03:44.064Z,85.56
2023-02-01T07:06:11.001Z,86.04
2023-02-01T07:08:38.843Z,85.31
2023-02-01T07:11:08.359Z,85.07
2023-02-01T07:13:35.778Z,85.25
2023-02-01T07:16:04.074Z,85.03
2023-02-01T07:18:31.447Z,84.51
2023-02-01T07:20:58.510Z,84.85
2023-02-01T07:23:25.701Z,85.03
2023-02-01T07:26:00.532Z,84.59
2023-02-01T07:28:29.407Z,84.56
2023-02-01T07:30:56.108Z,85.10
2023-02-01T07:33:27.064Z,83.99
2023-02-01T07:35:54.680Z,83.49
2023-02-01T07:38:22.750Z,83.64
2023-02-01T07:40:49.613Z,83.32
2023-02-01T07:43:17.058Z,82.69
2023-02-01T07:45:43.733Z,81.72
2023-02-01T07:48:10.443Z,82.08
2023-02-01T07:50:37.084Z,81.48
2023-02-01T07:53:03.693Z,81.61
2023-02-01T07:55:30.387Z,81.07
2023-02-01T07:57:59.897Z,80.51
2023-02-01T08:00:46.248Z,80.00
2023-02-01T08:03:12.947Z,80.43
2023-02-01T08:05:39.651Z,79.88
2023-02-01T08:08:06.920Z,80.42
2023-02-01T08:10:35.600Z,80.28
2023-02-01T08:13:03.582Z,79.50
2023-02-01T08:15:31.170Z,79.75
2023-02-01T08:17:59.443Z,80.08
2023-02-01T08:20:29.039Z,79.70
2023-02-01T08:22:55.930Z,79.54
2023-02-01T08:25:23.697Z,78.94
2023-02-01T08:27:51.627Z,79.33
2023-02-01T08:30:18.473Z,78.79
2023-02-01T08:32:45.111Z,78.25
2023-02-01T08:35:11.754Z,77.78
2023-02-01T08:37:38.606Z,78.09
2023-02-01T08:40:06.406Z,77.27
2023-02-01T08:42:51.692Z,77.64
2023-02-01T08:45:20.947Z,76.72
2023-02-01T08:47:50.421Z,76.68
2023-02-01T08:50:18.219Z,75.93
2023-02-01T08:52:45.009Z,76.50
2023-02-01T08:55:12.904Z,76.46
2023-02-01T08:57:40.049Z,76.18
2023-02-01T09:00:10.811Z,76.54
2023-02-01T09:02:37.619Z,76.22
2023-02-01T09:05:05.599Z,75.30
2023-02-01T09:07:33.987Z,76.47
2023-02-01T09:10:03.519Z,75.72
2023-02-01T09:12:32.324Z,75.46
2023-02-01T09:15:00.570Z,75.28
2023-02-01T09:19:56.439Z,74.88
2023-02-01T09:22:23.305Z,74.43
2023-02-01T09:24:49.969Z,75.25
2023-02-01T09:27:16.606Z,74.33
2023-02-01T09:29:43.363Z,74.39
2023-02-01T09:32:11.141Z,74.42
2023-02-01T09:34:37.857Z,74.00
2023-02-01T09:37:04.755Z,74.20
2023-02-01T09:39:31.518Z,73.75
2023-02-01T09:42:47.343Z,74.11
2023-02-01T09:45:41.972Z,75.21
2023-02-01T09:48:18.846Z,75.84
2023-02-01T09:51:07.484Z,76.42
2023-02-01T09:53:41.408Z,77.23
2023-02-01T09:56:11.698Z,79.09
2023-02-01T09:58:44.039Z,81.16
2023-02-01T10:01:20.923Z,82.87
2023-02-01T10:03:47.853Z,83.13
2023-02-01T10:06:42.680Z,82.80
2023-02-01T10:09:53.810Z,83.07
2023-02-01T10:13:00.369Z,82.23
2023-02-01T10:16:05.810Z,82.90
2023-02-01T10:18:57.493Z,80.98
2023-02-01T10:22:05.062Z,80.23
2023-02-01T10:24:41.960Z,80.86
2023-02-01T10:27:20.462Z,80.97
2023-02-01T10:29:55.254Z,81.79
2023-02-01T10:32:35.445Z,81.04
2023-02-01T10:35:11.077Z,80.47
2023-02-01T10:37:37.911Z,80.40
2023-02-01T10:40:26.336Z,79.12
2023-02-01T10:43:02.836Z,80.75
2023-02-01T10:45:31.939Z,80.76
2023-02-01T10:48:00.736Z,81.49
2023-02-01T10:51:10.438Z,81.40
2023-02-01T10:54:12.448Z,80.03
2023-02-01T10:56:39.645Z,78.00
2023-02-01T10:59:15.973Z,77.41
2023-02-01T11:01:46.269Z,77.08
2023-02-01T11:04:16.506Z,75.52
2023-02-01T11:06:45.927Z,75.80
2023-02-01T11:09:21.619Z,73.77
2023-02-01T11:11:59.680Z,74.87
2023-02-01T11:14:36.565Z,74.00
2023-02-01T11:17:24.330Z,73.48
2023-02-01T11:20:02.298Z,73.05
2023-02-01T11:22:30.612Z,72.21
2023-02-01T11:24:58.160Z,71.13
2023-02-01T11:27:27.770Z,72.65
2023-02-01T11:30:01.284Z,71.71
2023-02-01T11:32:28.756Z,71.17
2023-02-01T11:35:00.470Z,71.01
2023-02-01T11:37:31.343Z,71.27
2023-02-01T11:40:00.969Z,70.37
2023-02-01T11:42:29.397Z,70.50
2023-02-01T11:45:22.156Z,69.90
2023-02-01T11:47:53.574Z,69.77
2023-02-01T11:50:28.909Z,71.09
2023-02-01T11:53:38.883Z,73.57
2023-02-01T11:56:36.899Z,79.44
2023-02-01T11:59:33.883Z,81.94
2023-02-01T12:02:36.840Z,83.27
2023-02-01T12:05:39.573Z,79.03
2023-02-01T12:08:46.069Z,73.77
2023-02-01T12:11:29.033Z,72.35
2023-02-01T12:14:36.483Z,71.35
2023-02-01T12:17:54.130Z,70.89
2023-02-01T12:21:22.326Z,70.09
2023-02-01T12:24:36.731Z,70.54
2023-02-01T12:27:20.012Z,70.86
2023-02-01T12:30:15.714Z,69.47
2023-02-01T12:33:11.660Z,70.23
2023-02-01T12:58:08.335Z,68.77
2023-02-01T13:04:02.069Z,70.06
2023-02-01T13:06:38.427Z,70.10
2023-02-01T13:09:22.075Z,69.73
2023-02-01T13:11:51.900Z,70.34
2023-02-01T13:14:39.015Z,70.21
2023-02-01T13:17:12.095Z,70.96
2023-02-01T13:20:01.037Z,71.76
2023-02-01T13:22:34.354Z,71.00
2023-02-01T13:25:05.220Z,70.02
2023-02-01T13:27:33.722Z,70.62
2023-02-01T13:30:12.741Z,70.91
2023-02-01T13:33:53.108Z,70.70
2023-02-01T13:36:11.942Z,72.68
2023-02-01T13:39:25.663Z,72.72
2023-02-01T13:42:15.643Z,73.59
2023-02-01T13:44:48.048Z,73.81
2023-02-01T13:47:44.599Z,74.88
2023-02-01T13:50:30.443Z,73.53
2023-02-01T13:53:00.886Z,74.63
2023-02-01T13:55:39.249Z,74.22
2023-02-01T13:58:34.504Z,74.93
2023-02-01T14:01:22.811Z,75.95
2023-02-01T14:03:52.567Z,75.72
2023-02-01T14:06:38.903Z,75.80
2023-02-01T14:09:17.786Z,75.44
2023-02-01T14:11:50.266Z,75.94
2023-02-01T14:14:40.604Z,75.53
2023-02-01T14:17:09.663Z,75.55
2023-02-01T14:19:36.620Z,76.47
2023-02-01T14:22:35.783Z,78.00
2023-02-01T14:25:02.407Z,80.39
2023-02-01T14:27:36.074Z,82.99
2023-02-01T14:30:08.702Z,85.99
2023-02-01T14:32:42.662Z,91.46
2023-02-01T14:35:29.636Z,94.92
2023-02-01T14:38:03.650Z,95.84
2023-02-01T14:40:31.616Z,98.60
2023-02-01T14:42:58.244Z,98.80
2023-02-01T14:45:51.191Z,96.25
2023-02-01T14:48:37.941Z,94.36
2023-02-01T14:51:08.461Z,92.41
2023-02-01T14:53:36.817Z,92.45
2023-02-01T14:56:10.588Z,92.37
2023-02-01T14:59:01.622Z,87.32
2023-02-01T15:01:33.685Z,86.23
2023-02-01T15:04:27.505Z,85.52
2023-02-01T15:07:08.345Z,84.63
2023-02-01T15:09:43.691Z,84.39
2023-02-01T15:12:21.304Z,84.34
2023-02-01T15:15:04.161Z,83.26
2023-02-01T15:17:35.326Z,84.15
2023-02-01T15:20:17.115Z,83.87
2023-02-01T15:22:57.937Z,83.88
2023-02-01T15:25:29.579Z,82.60
2023-02-01T15:27:57.125Z,82.65
2023-02-01T15:30:29.643Z,82.34
2023-02-01T15:33:25.648Z,81.29
2023-02-01T15:36:18.657Z,80.82
2023-02-01T15:38:45.453Z,80.74
2023-02-01T15:41:29.690Z,81.29
2023-02-01T15:44:20.842Z,80.02
2023-02-01T15:46:51.228Z,79.04
2023-02-01T15:49:57.241Z,77.47
2023-02-01T15:52:31.670Z,77.06
2023-02-01T15:55:02.866Z,76.74
2023-02-01T15:57:35.863Z,76.27
2023-02-01T16:00:08.963Z,74.90
2023-02-01T16:02:58.847Z,74.70
2023-02-01T16:05:38.193Z,73.82
2023-02-01T16:08:15.219Z,74.12
2023-02-01T16:10:48.982Z,72.97
2023-02-01T16:13:17.310Z,72.39
2023-02-01T16:15:44.635Z,72.16
2023-02-01T16:18:12.315Z,72.83
2023-02-01T16:20:41.111Z,71.25
2023-02-01T16:23:09.118Z,72.24
2023-02-01T16:25:36.214Z,72.83
2023-02-01T16:28:03.012Z,72.64
2023-02-01T16:30:29.704Z,72.94
2023-02-01T16:32:58.700Z,73.13
2023-02-01T16:35:28.235Z,72.70
2023-02-01T16:37:55.611Z,72.54
2023-02-01T16:40:25.223Z,73.26
2023-02-01T16:42:53.903Z,73.63
2023-02-01T16:45:20.655Z,74.72
2023-02-01T16:47:53.456Z,74.39
2023-02-01T16:50:24.307Z,74.37
2023-02-01T16:52:51.912Z,74.12
2023-02-01T16:55:22.699Z,74.23
2023-02-01T16:57:49.841Z,74.14
2023-02-01T17:00:24.661Z,74.73
2023-02-01T17:02:52.831Z,75.06
2023-02-01T17:05:19.377Z,75.92
2023-02-01T17:07:46.467Z,75.62
2023-02-01T17:10:40.971Z,76.95
2023-02-01T17:13:19.052Z,77.13
2023-02-01T17:15:59.415Z,77.16
2023-02-01T17:18:31.588Z,76.71
2023-02-01T17:21:03.025Z,77.80
2023-02-01T17:23:30.642Z,78.25
2023-02-01T17:25:57.833Z,79.26
2023-02-01T17:28:25.164Z,78.89
2023-02-01T17:30:51.851Z,78.51
2023-02-01T17:33:34.429Z,78.27
2023-02-01T17:36:04.956Z,78.55
2023-02-01T17:38:31.685Z,79.01
2023-02-01T17:40:58.305Z,78.69
2023-02-01T17:43:26.217Z,79.11
2023-02-01T17:45:56.372Z,78.82
2023-02-01T17:48:23.669Z,79.94
2023-02-01T17:50:54.608Z,79.55
2023-02-01T17:53:24.530Z,79.84
2023-02-01T17:55:52.371Z,79.49
2023-02-01T17:58:19.556Z,80.15
2023-02-01T18:00:47.981Z,80.31
2023-02-01T18:03:28.167Z,79.28
2023-02-01T18:05:56.516Z,78.70
2023-02-01T18:08:26.365Z,78.99
2023-02-01T18:10:56.360Z,79.57
2023-02-01T18:13:23.004Z,79.96
2023-02-01T18:15:49.895Z,79.49
2023-02-01T18:18:16.507Z,80.62
2023-02-01T18:20:45.209Z,80.16
2023-02-01T18:23:20.746Z,80.57
2023-02-01T18:25:47.558Z,80.84
2023-02-01T18:28:17.990Z,80.75
2023-02-01T18:30:48.265Z,79.91
2023-02-01T18:33:17.850Z,80.12
2023-02-01T18:35:44.463Z,80.54
2023-02-01T18:38:11.205Z,80.00
2023-02-01T18:40:43.962Z,80.87
2023-02-01T18:43:12.308Z,80.84
2023-02-01T18:45:41.277Z,80.07
2023-02-01T18:48:09.997Z,80.28
2023-02-01T18:50:39.357Z,81.04
2023-02-01T18:53:10.642Z,79.05
2023-02-01T18:55:37.170Z,79.49
2023-02-01T18:58:06.584Z,78.81
2023-02-01T19:00:34.364Z,78.41
2023-02-01T19:03:01.583Z,78.70
2023-02-01T19:05:28.220Z,77.04
2023-02-01T19:07:54.785Z,77.91
2023-02-01T19:10:23.162Z,77.24
2023-02-01T19:12:51.433Z,77.39
2023-02-01T19:15:18.849Z,76.18
2023-02-01T19:17:48.636Z,78.09
2023-02-01T19:20:18.496Z,77.18
2023-02-01T19:22:46.634Z,76.96
2023-02-01T19:25:25.885Z,77.07
2023-02-01T19:27:53.427Z,75.55
2023-02-01T19:30:22.031Z,75.53
2023-02-01T19:32:49.089Z,75.62
2023-02-01T19:35:19.533Z,75.52
2023-02-01T19:37:47.679Z,76.22
2023-02-01T19:40:17.694Z,75.58
2023-02-01T19:42:44.546Z,75.19
2023-02-01T19:45:11.519Z,75.36
2023-02-01T19:47:38.716Z,74.88
2023-02-01T19:50:07.177Z,74.34
2023-02-01T19:52:35.021Z,73.79
2023-02-01T19:55:02.054Z,74.08
2023-02-01T19:57:29.439Z,73.56
2023-02-01T19:59:56.677Z,74.11
2023-02-01T20:02:24.646Z,73.36
2023-02-01T20:04:51.229Z,74.24
2023-02-01T20:07:17.858Z,73.83
2023-02-01T20:09:44.433Z,73.63
2023-02-01T20:12:11.484Z,73.97
2023-02-01T20:14:38.882Z,74.21
2023-02-01T20:17:07.321Z,74.95
2023-02-01T20:19:34.686Z,75.85
2023-02-01T20:22:01.319Z,76.20
2023-02-01T20:24:27.900Z,76.89
2023-02-01T20:26:55.314Z,77.02
2023-02-01T20:29:22.911Z,77.40
2023-02-01T20:31:49.762Z,77.76
2023-02-01T20:34:16.460Z,77.57
2023-02-01T20:36:43.152Z,77.90
2023-02-01T20:39:12.993Z,77.80
2023-02-01T20:41:39.592Z,77.86
2023-02-01T20:44:06.203Z,78.20
2023-02-01T20:46:32.808Z,78.41
2023-02-01T20:48:59.438Z,78.37
2023-02-01T20:51:26.064Z,78.63
2023-02-01T20:53:54.338Z,77.91
2023-02-01T20:56:21.838Z,77.92
2023-02-01T20:58:48.562Z,78.03
2023-02-01T21:01:15.830Z,78.32
2023-02-01T21:03:42.791Z,78.88
2023-02-01T21:06:11.799Z,78.04
2023-02-01T21:08:38.548Z,78.58
2023-02-01T21:11:10.580Z,78.03
2023-02-01T21:13:42.959Z,77.88
2023-02-01T21:16:12.773Z,77.75
2023-02-01T21:18:39.523Z,77.42
2023-02-01T21:21:11.537Z,77.69
2023-02-01T21:23:44.783Z,77.97
2023-02-01T21:26:21.824Z,77.40
2023-02-01T21:28:49.474Z,76.77
2023-02-01T21:31:17.242Z,76.32
2023-02-01T21:33:46.884Z,76.38
2023-02-01T21:36:18.916Z,76.12
2023-02-01T21:38:47.321Z,74.87
2023-02-01T21:41:32.766Z,74.65
2023-02-01T21:43:59.319Z,73.67
2023-02-01T21:46:25.950Z,74.78
2023-02-01T21:49:04.665Z,73.28
2023-02-01T21:51:35.150Z,72.48
2023-02-01T21:54:02.032Z,73.20
2023-02-01T21:56:29.019Z,72.22
2023-02-01T21:58:56.631Z,72.21
2023-02-01T22:01:23.772Z,73.00
2023-02-01T22:03:50.545Z,72.10
2023-02-01T22:06:35.274Z,71.08
2023-02-01T22:09:02.682Z,71.47
2023-02-01T22:11:29.479Z,71.61
2023-02-01T22:13:56.427Z,74.23
2023-02-01T22:16:23.722Z,78.65
2023-02-01T22:18:52.184Z,78.62
2023-02-01T22:21:19.701Z,77.74
2023-02-01T22:23:52.180Z,75.83
2023-02-01T22:26:18.791Z,75.12
2023-02-01T22:28:45.442Z,73.65
2023-02-01T22:31:12.345Z,73.83
2023-02-01T22:33:39.226Z,73.25
2023-02-01T22:36:07.433Z,73.62
2023-02-01T22:38:35.659Z,72.61
2023-02-01T22:41:05.656Z,71.58
2023-02-01T22:43:33.180Z,71.82
2023-02-01T22:46:13.803Z,71.78
2023-02-01T22:48:41.914Z,70.32
2023-02-01T22:51:16.136Z,71.94
2023-02-01T22:53:42.871Z,71.77
2023-02-01T22:56:11.514Z,71.43
2023-02-01T22:58:38.868Z,71.71
2023-02-01T23:01:13.357Z,71.00
2023-02-01T23:03:40.467Z,72.27
2023-02-01T23:06:08.471Z,73.43
2023-02-01T23:08:35.781Z,74.43
2023-02-01T23:11:10.011Z,75.80
2023-02-01T23:13:38.940Z,76.29
2023-02-01T23:16:12.270Z,76.63
2023-02-01T23:18:39.671Z,77.45
2023-02-01T23:21:13.241Z,77.12
2023-02-01T23:23:40.256Z,77.29
2023-02-01T23:26:06.981Z,77.67
2023-02-01T23:28:33.747Z,79.21
2023-02-01T23:31:06.902Z,79.33
2023-02-01T23:33:33.622Z,80.41
2023-02-01T23:36:03.873Z,81.32
2023-02-01T23:38:30.585Z,82.05
2023-02-01T23:41:06.213Z,81.97
2023-02-01T23:43:52.265Z,82.16
2023-02-01T23:46:19.649Z,82.73
2023-02-01T23:48:48.815Z,82.91
2023-02-01T23:51:15.799Z,83.52
2023-02-01T23:53:42.425Z,83.30
2023-02-01T23:56:17.462Z,83.91
2023-02-01T23:58:44.239Z,83.58
